Time;durP1;ratioP1;P1;durP2;ratioP2;P2;SDS_P1;SDS_P2;PMS_P1;PMS_P2;Temp;Humidity;BMP_temperature;BMP_pressure;BME280_temperature;BME280_humidity;BME280_pressure;Samples;Min_cycle;Max_cycle;Signal;HPM_P1;HPM_P2
2021/09/21 00:01:27;;;;;;;;;;;11.50;99.90;;;;;;4898783;29;20432;-74
2021/09/21 00:03:52;;;;;;;;;;;11.50;99.90;;;;;;4898405;29;19911;-74
2021/09/21 00:06:18;;;;;;;;;;;11.40;99.90;;;;;;4898964;29;20011;-73
2021/09/21 00:08:44;;;;;;;;;;;11.40;99.90;;;;;;4898831;29;19912;-73
2021/09/21 00:11:09;;;;;;;;;;;11.40;99.90;;;;;;4898528;29;20337;-73
2021/09/21 00:13:35;;;;;;;;;;;11.40;99.90;;;;;;4913717;29;19911;-73
2021/09/21 00:16:01;;;;;;;;;;;11.40;99.90;;;;;;4897177;29;19967;-73
2021/09/21 00:18:26;;;;;;;;;;;11.30;99.90;;;;;;4898349;29;19993;-73
2021/09/21 00:20:52;;;;;;;;;;;11.30;99.90;;;;;;4898848;29;19949;-73
2021/09/21 00:23:18;;;;;;;;;;;11.20;99.90;;;;;;4894786;29;20372;-73
2021/09/21 00:25:44;;;;;;;;;;;11.20;99.90;;;;;;4897311;29;20372;-73
2021/09/21 00:28:09;;;;;;;;;;;11.20;99.90;;;;;;4898620;29;19911;-73
2021/09/21 00:30:35;;;;;;;;;;;11.10;99.90;;;;;;4898898;29;19913;-73
2021/09/21 00:33:02;;;;;;;;;;;11.10;99.90;;;;;;4898053;29;19975;-73
2021/09/21 00:35:28;;;;;;;;;;;11.10;99.90;;;;;;4896825;29;19918;-74
2021/09/21 00:37:54;;;;;;;;;;;11.10;99.90;;;;;;4897001;29;19958;-74
2021/09/21 00:40:19;;;;;;;;;;;11.20;99.90;;;;;;4912784;29;19915;-73
2021/09/21 00:42:45;;;;;;;;;;;11.30;99.90;;;;;;4897419;29;19917;-73
2021/09/21 00:45:15;;;;;;;;;;;11.30;99.90;;;;;;4897580;29;19915;-73
2021/09/21 00:47:41;;;;;;;;;;;11.20;99.90;;;;;;4898372;29;19926;-73
2021/09/21 00:50:06;;;;;;;;;;;11.20;99.90;;;;;;4898075;29;19911;-73
2021/09/21 00:52:32;;;;;;;;;;;11.10;99.90;;;;;;4898191;29;19957;-73
2021/09/21 00:54:58;;;;;;;;;;;11.10;99.90;;;;;;4895943;29;19912;-73
2021/09/21 00:57:24;;;;;;;;;;;11.10;99.90;;;;;;4912229;29;19911;-74
2021/09/21 00:59:49;;;;;;;;;;;11.00;99.90;;;;;;4898485;29;19967;-73
2021/09/21 01:02:15;;;;;;;;;;;10.90;99.90;;;;;;4896815;29;19911;-74
2021/09/21 01:04:40;;;;;;;;;;;10.90;99.90;;;;;;4897889;29;19915;-73
2021/09/21 01:07:06;;;;;;;;;;;10.90;99.90;;;;;;4897980;29;20392;-73
2021/09/21 01:09:31;;;;;;;;;;;10.80;99.90;;;;;;4913235;29;19916;-73
2021/09/21 01:11:58;;;;;;;;;;;10.80;99.90;;;;;;4898438;29;19915;-73
2021/09/21 01:14:24;;;;;;;;;;;10.80;99.90;;;;;;4898252;29;19915;-73
2021/09/21 01:16:50;;;;;;;;;;;10.80;99.90;;;;;;4898190;29;19911;-74
2021/09/21 01:19:16;;;;;;;;;;;10.70;99.90;;;;;;4911674;29;19918;-74
2021/09/21 01:21:42;;;;;;;;;;;10.70;99.90;;;;;;4896964;29;20369;-73
2021/09/21 01:24:08;;;;;;;;;;;10.70;99.90;;;;;;4897927;29;19915;-73
2021/09/21 01:26:34;;;;;;;;;;;10.70;99.90;;;;;;4897728;29;19920;-73
2021/09/21 01:29:00;;;;;;;;;;;10.70;99.90;;;;;;4898438;29;20408;-73
2021/09/21 01:31:25;;;;;;;;;;;10.70;99.90;;;;;;4897762;29;19912;-73
2021/09/21 01:33:52;;;;;;;;;;;10.70;99.90;;;;;;4897845;29;20269;-73
2021/09/21 01:36:18;;;;;;;;;;;10.60;99.90;;;;;;4897629;29;19919;-73
2021/09/21 01:38:43;;;;;;;;;;;10.60;99.90;;;;;;4897594;29;19912;-73
2021/09/21 01:41:09;;;;;;;;;;;10.60;99.90;;;;;;4897802;29;19913;-73
2021/09/21 01:43:35;;;;;;;;;;;10.60;99.90;;;;;;4897650;29;19912;-73
2021/09/21 01:46:00;;;;;;;;;;;10.60;99.90;;;;;;4897895;29;19957;-73
2021/09/21 01:48:26;;;;;;;;;;;10.60;99.90;;;;;;4897904;29;20055;-73
2021/09/21 01:50:58;;;;;;;;;;;10.60;99.90;;;;;;4897807;29;19911;-73
2021/09/21 01:58:51;;;;;;;;;;;10.50;99.90;;;;;;4898351;29;19925;-73
2021/09/21 02:01:18;;;;;;;;;;;10.50;99.90;;;;;;4897132;29;20285;-72
2021/09/21 02:03:44;;;;;;;;;;;10.40;99.90;;;;;;4895857;29;20296;-73
2021/09/21 02:06:10;;;;;;;;;;;10.40;99.90;;;;;;4897793;29;19915;-73
2021/09/21 02:08:35;;;;;;;;;;;10.40;99.90;;;;;;4898056;29;19911;-73
2021/09/21 02:11:01;;;;;;;;;;;10.40;99.90;;;;;;4901140;29;20309;-73
2021/09/21 02:13:27;;;;;;;;;;;10.40;99.90;;;;;;4900526;29;19918;-73
2021/09/21 02:15:52;;;;;;;;;;;10.40;99.90;;;;;;4899616;29;19919;-73
2021/09/21 02:18:18;;;;;;;;;;;10.40;99.90;;;;;;4900191;29;19907;-72
2021/09/21 02:20:43;;;;;;;;;;;10.40;99.90;;;;;;4899558;29;19919;-72
2021/09/21 02:23:09;;;;;;;;;;;10.40;99.90;;;;;;4900985;29;19954;-72
2021/09/21 02:25:35;;;;;;;;;;;10.40;99.90;;;;;;4915674;29;19911;-73
2021/09/21 02:28:00;;;;;;;;;;;10.40;99.90;;;;;;4901448;29;19930;-73
2021/09/21 02:30:26;;;;;;;;;;;10.40;99.90;;;;;;4900416;29;19911;-73
2021/09/21 02:32:51;;;;;;;;;;;10.50;99.90;;;;;;4901321;29;19911;-72
2021/09/21 02:35:17;;;;;;;;;;;10.50;99.90;;;;;;4900509;29;20328;-72
2021/09/21 02:37:43;;;;;;;;;;;10.50;99.90;;;;;;4901672;29;19911;-73
2021/09/21 02:40:09;;;;;;;;;;;10.60;99.90;;;;;;4902692;29;19907;-73
2021/09/21 02:42:35;;;;;;;;;;;10.60;99.90;;;;;;4903448;29;19935;-74
2021/09/21 02:45:01;;;;;;;;;;;10.60;99.90;;;;;;4903514;29;19923;-74
2021/09/21 02:47:26;;;;;;;;;;;10.60;99.90;;;;;;4902369;29;19966;-73
2021/09/21 02:49:52;;;;;;;;;;;10.60;99.90;;;;;;4902975;29;20271;-74
2021/09/21 02:52:17;;;;;;;;;;;10.60;99.90;;;;;;4902606;29;19934;-73
2021/09/21 02:54:43;;;;;;;;;;;10.60;99.90;;;;;;4904066;29;19958;-73
2021/09/21 02:57:08;;;;;;;;;;;10.60;99.90;;;;;;4903465;29;19919;-74
2021/09/21 02:59:33;;;;;;;;;;;10.50;99.90;;;;;;4901685;29;19907;-73
2021/09/21 03:01:59;;;;;;;;;;;10.50;99.90;;;;;;4900115;29;19911;-73
2021/09/21 03:04:31;;;;;;;;;;;10.50;99.90;;;;;;4914527;29;19919;-73
2021/09/21 03:07:07;;;;;;;;;;;10.50;99.90;;;;;;4898565;29;19915;-73
2021/09/21 03:17:31;;;;;;;;;;;10.40;99.90;;;;;;4894961;29;20367;-72
2021/09/21 03:19:58;;;;;;;;;;;10.30;99.90;;;;;;4914326;29;19911;-72
2021/09/21 03:22:24;;;;;;;;;;;10.20;99.90;;;;;;4899515;29;19919;-72
2021/09/21 03:24:50;;;;;;;;;;;10.20;99.90;;;;;;4898704;29;19911;-72
2021/09/21 03:27:16;;;;;;;;;;;10.20;99.90;;;;;;4899988;29;20313;-72
2021/09/21 03:29:41;;;;;;;;;;;10.20;99.90;;;;;;4900290;29;19989;-72
2021/09/21 03:32:07;;;;;;;;;;;10.20;99.90;;;;;;4897959;29;19994;-72
2021/09/21 03:34:36;;;;;;;;;;;10.10;99.90;;;;;;4900159;29;19914;-73
2021/09/21 03:37:02;;;;;;;;;;;10.10;99.90;;;;;;4898090;29;20006;-72
2021/09/21 03:39:28;;;;;;;;;;;10.10;99.90;;;;;;4899589;29;19911;-72
2021/09/21 03:41:53;;;;;;;;;;;10.10;99.90;;;;;;4899251;29;20329;-72
2021/09/21 03:44:19;;;;;;;;;;;10.00;99.90;;;;;;4897931;29;20288;-72
2021/09/21 03:46:44;;;;;;;;;;;10.00;99.90;;;;;;4898831;29;19915;-72
2021/09/21 03:49:10;;;;;;;;;;;10.00;99.90;;;;;;4899923;29;19954;-72
2021/09/21 03:51:36;;;;;;;;;;;10.00;99.90;;;;;;4913953;29;19915;-73
2021/09/21 03:54:01;;;;;;;;;;;10.00;99.90;;;;;;4899632;29;20320;-72
2021/09/21 03:56:27;;;;;;;;;;;9.90;99.90;;;;;;4898503;29;19918;-72
2021/09/21 03:58:52;;;;;;;;;;;9.90;99.90;;;;;;4899309;29;19955;-72
2021/09/21 04:01:18;;;;;;;;;;;9.90;99.90;;;;;;4898453;29;19918;-72
2021/09/21 04:03:43;;;;;;;;;;;9.80;99.90;;;;;;4898890;29;20416;-73
2021/09/21 04:06:08;;;;;;;;;;;9.80;99.90;;;;;;4897380;29;19963;-72
2021/09/21 04:08:34;;;;;;;;;;;9.80;99.90;;;;;;4897924;29;20273;-73
2021/09/21 04:10:59;;;;;;;;;;;9.80;99.90;;;;;;4898510;29;19916;-73
2021/09/21 04:13:25;;;;;;;;;;;9.80;99.90;;;;;;4898658;29;20390;-73
2021/09/21 04:15:50;;;;;;;;;;;9.70;99.90;;;;;;4898624;29;19915;-73
2021/09/21 04:18:16;;;;;;;;;;;9.70;99.90;;;;;;4898755;29;19912;-73
2021/09/21 04:20:41;;;;;;;;;;;9.70;99.90;;;;;;4897008;29;19998;-72
2021/09/21 04:23:08;;;;;;;;;;;9.70;99.90;;;;;;4897259;29;19919;-72
2021/09/21 04:25:33;;;;;;;;;;;9.60;99.90;;;;;;4898882;29;20015;-73
2021/09/21 04:27:59;;;;;;;;;;;9.60;99.90;;;;;;4913151;29;19966;-73
2021/09/21 04:30:25;;;;;;;;;;;9.60;99.90;;;;;;4898611;29;19911;-73
2021/09/21 04:32:50;;;;;;;;;;;9.60;99.90;;;;;;4897194;29;19911;-73
2021/09/21 04:35:16;;;;;;;;;;;9.50;99.90;;;;;;4898971;29;19915;-73
2021/09/21 04:37:42;;;;;;;;;;;9.50;99.90;;;;;;4898377;29;19917;-72
2021/09/21 04:40:08;;;;;;;;;;;9.50;99.90;;;;;;4897291;29;20006;-72
2021/09/21 04:42:33;;;;;;;;;;;9.50;99.90;;;;;;4898221;29;19916;-72
2021/09/21 04:44:59;;;;;;;;;;;9.50;99.90;;;;;;4898424;29;19911;-72
2021/09/21 04:47:24;;;;;;;;;;;9.40;99.90;;;;;;4898585;29;19923;-72
2021/09/21 04:49:50;;;;;;;;;;;9.40;99.90;;;;;;4898176;29;20316;-72
2021/09/21 04:52:16;;;;;;;;;;;9.40;99.90;;;;;;4897971;29;19915;-72
2021/09/21 04:54:42;;;;;;;;;;;9.40;99.90;;;;;;4897185;29;19915;-73
2021/09/21 04:57:07;;;;;;;;;;;9.40;99.90;;;;;;4898107;29;19918;-72
2021/09/21 04:59:33;;;;;;;;;;;9.40;99.90;;;;;;4912890;29;19912;-72
2021/09/21 05:01:58;;;;;;;;;;;9.30;99.90;;;;;;4898192;29;20010;-72
2021/09/21 05:04:24;;;;;;;;;;;9.30;99.90;;;;;;4898179;29;19919;-72
2021/09/21 05:06:50;;;;;;;;;;;9.30;99.90;;;;;;4898670;29;19916;-73
2021/09/21 05:09:15;;;;;;;;;;;9.30;99.90;;;;;;4898208;29;20400;-74
2021/09/21 05:11:41;;;;;;;;;;;9.30;99.90;;;;;;4898253;29;19997;-72
2021/09/21 05:14:07;;;;;;;;;;;9.30;99.90;;;;;;4898582;29;20355;-72
2021/09/21 05:16:34;;;;;;;;;;;9.30;99.90;;;;;;4898503;29;19915;-72
2021/09/21 05:18:59;;;;;;;;;;;9.30;99.90;;;;;;4898270;29;20381;-72
2021/09/21 05:21:25;;;;;;;;;;;9.30;99.90;;;;;;4896892;29;19919;-72
2021/09/21 05:23:50;;;;;;;;;;;9.30;99.90;;;;;;4898743;29;19915;-72
2021/09/21 05:26:17;;;;;;;;;;;9.40;99.90;;;;;;4898938;29;19927;-72
2021/09/21 05:28:43;;;;;;;;;;;9.40;99.90;;;;;;4897638;29;19919;-73
2021/09/21 05:31:09;;;;;;;;;;;9.40;99.90;;;;;;4898209;29;19911;-73
2021/09/21 05:33:34;;;;;;;;;;;9.50;99.90;;;;;;4898702;29;19912;-73
2021/09/21 05:36:00;;;;;;;;;;;9.50;99.90;;;;;;4896886;29;19911;-73
2021/09/21 05:38:26;;;;;;;;;;;9.50;99.90;;;;;;4897633;29;19919;-73
2021/09/21 05:40:52;;;;;;;;;;;9.50;99.90;;;;;;4897334;29;20310;-73
2021/09/21 05:43:18;;;;;;;;;;;9.50;99.90;;;;;;4898640;29;19964;-73
2021/09/21 05:45:43;;;;;;;;;;;9.50;99.90;;;;;;4900740;29;20360;-73
2021/09/21 05:48:09;;;;;;;;;;;9.50;99.90;;;;;;4901665;29;19919;-73
2021/09/21 05:50:34;;;;;;;;;;;9.50;99.90;;;;;;4902512;29;19947;-73
2021/09/21 05:53:00;;;;;;;;;;;9.50;99.90;;;;;;4901869;29;19930;-73
2021/09/21 05:55:27;;;;;;;;;;;9.50;99.90;;;;;;4901306;29;19963;-73
2021/09/21 05:57:53;;;;;;;;;;;9.60;99.90;;;;;;4904022;29;19930;-74
2021/09/21 06:00:18;;;;;;;;;;;9.60;99.90;;;;;;4886873;29;19994;-74
2021/09/21 06:02:44;;;;;;;;;;;9.70;99.90;;;;;;4904015;29;19908;-73
2021/09/21 06:05:09;;;;;;;;;;;9.70;99.90;;;;;;4903410;29;20353;-73
2021/09/21 06:07:35;;;;;;;;;;;9.80;99.90;;;;;;4903670;29;19916;-74
2021/09/21 06:10:01;;;;;;;;;;;9.90;99.90;;;;;;4901868;29;19998;-74
2021/09/21 06:12:27;;;;;;;;;;;9.90;99.90;;;;;;4904008;29;20288;-74
2021/09/21 06:14:53;;;;;;;;;;;10.10;99.90;;;;;;4902307;29;20365;-73
2021/09/21 06:17:18;;;;;;;;;;;10.20;99.90;;;;;;4902157;29;19919;-74
2021/09/21 06:19:44;;;;;;;;;;;10.30;99.90;;;;;;4901942;29;20351;-73
2021/09/21 06:22:09;;;;;;;;;;;10.40;99.90;;;;;;4901260;29;19912;-73
2021/09/21 06:24:35;;;;;;;;;;;10.50;99.90;;;;;;4901852;29;19918;-73
2021/09/21 06:27:00;;;;;;;;;;;10.60;99.90;;;;;;4901324;29;19928;-72
2021/09/21 06:29:25;;;;;;;;;;;10.70;99.90;;;;;;4901507;29;20340;-73
2021/09/21 06:31:51;;;;;;;;;;;10.80;99.90;;;;;;4901530;29;19958;-73
2021/09/21 06:34:16;;;;;;;;;;;10.90;99.90;;;;;;4901052;29;19912;-73
2021/09/21 06:36:42;;;;;;;;;;;11.00;99.90;;;;;;4900820;29;19912;-72
2021/09/21 06:39:07;;;;;;;;;;;11.10;99.90;;;;;;4900486;29;20365;-73
2021/09/21 06:41:33;;;;;;;;;;;11.20;99.90;;;;;;4900762;29;19915;-73
2021/09/21 06:43:58;;;;;;;;;;;11.30;99.90;;;;;;4899087;29;20321;-73
2021/09/21 06:46:24;;;;;;;;;;;11.40;99.90;;;;;;4899012;29;19927;-73
2021/09/21 06:48:49;;;;;;;;;;;11.50;99.90;;;;;;4900454;29;19934;-73
2021/09/21 06:51:17;;;;;;;;;;;11.60;99.90;;;;;;4900612;29;19951;-73
2021/09/21 06:53:43;;;;;;;;;;;11.70;99.90;;;;;;4900395;29;19918;-73
2021/09/21 06:56:08;;;;;;;;;;;11.80;99.90;;;;;;4898695;29;20281;-73
2021/09/21 06:58:35;;;;;;;;;;;11.90;99.90;;;;;;4900096;29;19912;-74
2021/09/21 07:01:00;;;;;;;;;;;12.00;99.90;;;;;;4899791;29;19916;-73
2021/09/21 07:03:26;;;;;;;;;;;12.10;99.90;;;;;;4899898;29;19918;-73
2021/09/21 07:05:53;;;;;;;;;;;12.30;99.90;;;;;;4900833;29;19963;-73
2021/09/21 07:08:19;;;;;;;;;;;12.40;99.90;;;;;;4899930;29;20421;-73
2021/09/21 07:10:45;;;;;;;;;;;12.50;99.90;;;;;;4899995;29;19916;-73
2021/09/21 07:13:10;;;;;;;;;;;12.70;99.90;;;;;;4895591;29;19998;-74
2021/09/21 07:15:36;;;;;;;;;;;12.90;99.90;;;;;;4881479;29;19908;-73
2021/09/21 07:18:01;;;;;;;;;;;13.00;99.90;;;;;;4911607;29;19961;-73
2021/09/21 07:20:27;;;;;;;;;;;13.20;99.90;;;;;;4900170;29;19912;-73
2021/09/21 07:22:53;;;;;;;;;;;13.30;99.90;;;;;;4900462;29;19953;-74
2021/09/21 07:25:18;;;;;;;;;;;13.40;99.90;;;;;;4899303;29;19999;-73
2021/09/21 07:27:45;;;;;;;;;;;13.50;99.90;;;;;;4899510;29;19919;-73
2021/09/21 07:30:11;;;;;;;;;;;13.70;99.90;;;;;;4900123;29;20316;-74
2021/09/21 07:32:37;;;;;;;;;;;13.80;99.90;;;;;;4899703;29;20274;-74
2021/09/21 07:35:03;;;;;;;;;;;13.90;99.90;;;;;;4899908;29;19997;-74
2021/09/21 07:37:28;;;;;;;;;;;13.90;99.90;;;;;;4899678;29;20262;-73
2021/09/21 07:39:55;;;;;;;;;;;14.00;99.90;;;;;;4896349;29;19927;-73
2021/09/21 07:42:21;;;;;;;;;;;14.10;99.90;;;;;;4896145;29;19943;-73
2021/09/21 07:44:46;;;;;;;;;;;14.10;99.90;;;;;;4888709;29;19950;-73
2021/09/21 07:47:12;;;;;;;;;;;14.10;99.90;;;;;;4899477;29;19915;-73
2021/09/21 07:49:38;;;;;;;;;;;14.20;99.90;;;;;;4899610;29;19919;-73
2021/09/21 07:52:03;;;;;;;;;;;14.20;99.90;;;;;;4899535;29;19907;-73
2021/09/21 07:54:29;;;;;;;;;;;14.40;99.90;;;;;;4913924;29;19979;-73
2021/09/21 07:56:54;;;;;;;;;;;14.40;99.90;;;;;;4896837;29;19927;-74
2021/09/21 07:59:20;;;;;;;;;;;14.50;99.90;;;;;;4895807;29;19915;-74
2021/09/21 08:01:45;;;;;;;;;;;14.60;99.90;;;;;;4899257;29;19959;-73
2021/09/21 08:04:11;;;;;;;;;;;14.80;99.90;;;;;;4900031;29;19969;-73
2021/09/21 08:06:36;;;;;;;;;;;14.90;99.90;;;;;;4914283;29;20026;-74
2021/09/21 08:09:02;;;;;;;;;;;15.10;99.90;;;;;;4896892;29;19918;-74
2021/09/21 08:11:28;;;;;;;;;;;15.20;99.90;;;;;;4912188;29;20580;-74
2021/09/21 08:13:53;;;;;;;;;;;15.20;99.90;;;;;;4912571;29;19917;-74
2021/09/21 08:16:19;;;;;;;;;;;15.30;99.90;;;;;;4898118;29;20257;-74
2021/09/21 08:18:45;;;;;;;;;;;15.40;99.90;;;;;;4898421;29;19916;-74
2021/09/21 08:21:10;;;;;;;;;;;15.30;99.90;;;;;;4898733;29;19938;-76
2021/09/21 08:23:36;;;;;;;;;;;15.40;99.90;;;;;;4899058;29;20002;-77
2021/09/21 08:26:01;;;;;;;;;;;15.50;99.90;;;;;;4898636;29;19911;-75
2021/09/21 08:28:27;;;;;;;;;;;15.60;99.90;;;;;;4896623;29;19919;-74
2021/09/21 08:30:52;;;;;;;;;;;15.70;99.90;;;;;;4898556;29;19911;-75
2021/09/21 08:33:18;;;;;;;;;;;15.80;99.90;;;;;;4898604;29;19912;-75
2021/09/21 08:35:43;;;;;;;;;;;15.90;99.90;;;;;;4898571;29;19907;-75
2021/09/21 08:38:09;;;;;;;;;;;16.10;99.90;;;;;;4898021;29;19907;-74
2021/09/21 08:40:35;;;;;;;;;;;16.20;99.90;;;;;;4898246;29;19915;-74
2021/09/21 08:43:00;;;;;;;;;;;16.20;99.90;;;;;;4898849;29;19964;-72
2021/09/21 08:45:27;;;;;;;;;;;16.30;99.90;;;;;;4898569;29;19966;-75
2021/09/21 08:47:53;;;;;;;;;;;16.30;99.90;;;;;;4898594;29;19915;-72
2021/09/21 08:50:18;;;;;;;;;;;16.40;99.90;;;;;;4898457;29;20381;-74
2021/09/21 08:52:44;;;;;;;;;;;16.50;99.90;;;;;;4897017;29;19934;-75
2021/09/21 08:55:11;;;;;;;;;;;16.40;99.90;;;;;;4912318;29;19966;-75
2021/09/21 08:57:37;;;;;;;;;;;16.50;99.90;;;;;;4897629;29;19907;-73
2021/09/21 09:00:03;;;;;;;;;;;16.60;99.90;;;;;;4897599;29;19907;-73
2021/09/21 09:02:29;;;;;;;;;;;16.70;99.90;;;;;;4916515;29;20388;-73
2021/09/21 09:04:56;;;;;;;;;;;16.80;99.90;;;;;;4916508;29;19920;-73
2021/09/21 09:07:21;;;;;;;;;;;16.90;99.90;;;;;;4897175;29;19911;-73
2021/09/21 09:09:47;;;;;;;;;;;16.90;99.90;;;;;;4898393;29;19963;-75
2021/09/21 09:12:12;;;;;;;;;;;17.00;99.90;;;;;;4896877;29;19963;-75
2021/09/21 09:14:39;;;;;;;;;;;17.20;99.60;;;;;;4916227;29;19907;-75
2021/09/21 09:17:05;;;;;;;;;;;17.30;99.30;;;;;;4916183;29;19907;-76
2021/09/21 09:19:36;;;;;;;;;;;17.30;99.50;;;;;;4906745;29;19915;-75
2021/09/21 09:22:06;;;;;;;;;;;17.20;98.80;;;;;;4897042;29;19911;-76
2021/09/21 09:24:43;;;;;;;;;;;17.30;98.30;;;;;;4912936;29;19912;-75
2021/09/21 09:27:09;;;;;;;;;;;17.40;98.60;;;;;;4912997;29;20047;-78
2021/09/21 09:29:34;;;;;;;;;;;17.50;98.60;;;;;;4896915;29;19951;-75
2021/09/21 09:32:00;;;;;;;;;;;17.70;98.40;;;;;;4898614;29;19918;-75
2021/09/21 09:34:26;;;;;;;;;;;17.80;98.20;;;;;;4898282;29;20337;-74
2021/09/21 09:36:59;;;;;;;;;;;17.80;98.20;;;;;;4898372;29;19972;-76
2021/09/21 09:39:26;;;;;;;;;;;17.90;98.40;;;;;;4896740;29;19951;-75
2021/09/21 09:41:54;;;;;;;;;;;17.90;98.40;;;;;;4898199;29;19915;-76
2021/09/21 09:44:21;;;;;;;;;;;18.00;98.40;;;;;;4898035;29;20014;-75
2021/09/21 09:46:48;;;;;;;;;;;18.10;98.60;;;;;;4896663;29;19918;-76
2021/09/21 09:49:14;;;;;;;;;;;18.10;98.30;;;;;;4898947;29;19939;-75
2021/09/21 09:51:44;;;;;;;;;;;18.20;98.20;;;;;;4912335;29;20273;-76
2021/09/21 09:54:10;;;;;;;;;;;18.20;98.40;;;;;;4897049;29;20387;-75
2021/09/21 09:56:36;;;;;;;;;;;18.30;98.10;;;;;;4897629;29;19911;-74
2021/09/21 09:59:02;;;;;;;;;;;18.40;98.30;;;;;;4898059;29;20019;-74
2021/09/21 10:01:27;;;;;;;;;;;18.40;98.20;;;;;;4897669;29;19907;-74
2021/09/21 10:03:53;;;;;;;;;;;18.40;97.90;;;;;;4912128;29;20042;-73
2021/09/21 10:06:18;;;;;;;;;;;18.50;98.20;;;;;;4897027;29;19916;-74
2021/09/21 10:08:45;;;;;;;;;;;18.50;97.70;;;;;;4896027;29;19938;-75
2021/09/21 10:11:11;;;;;;;;;;;18.50;97.80;;;;;;4911429;29;19919;-74
2021/09/21 10:13:37;;;;;;;;;;;18.60;97.80;;;;;;4898358;29;19998;-74
2021/09/21 10:16:03;;;;;;;;;;;18.60;97.40;;;;;;4898116;29;19911;-74
2021/09/21 10:18:28;;;;;;;;;;;18.70;97.80;;;;;;4897627;29;19919;-75
2021/09/21 10:20:55;;;;;;;;;;;18.80;97.40;;;;;;4898048;29;19911;-73
2021/09/21 10:23:21;;;;;;;;;;;19.00;97.80;;;;;;4911190;29;19975;-76
2021/09/21 10:25:46;;;;;;;;;;;19.10;97.80;;;;;;4896503;29;19953;-75
2021/09/21 10:28:14;;;;;;;;;;;19.20;96.90;;;;;;4912242;29;20023;-76
2021/09/21 10:30:40;;;;;;;;;;;19.30;96.70;;;;;;4897891;29;19911;-76
2021/09/21 10:33:15;;;;;;;;;;;19.40;96.10;;;;;;4899445;29;20304;-75
2021/09/21 10:35:44;;;;;;;;;;;19.40;96.70;;;;;;4901701;29;20372;-75
2021/09/21 10:38:12;;;;;;;;;;;19.50;96.60;;;;;;4902335;29;19914;-74
2021/09/21 10:40:37;;;;;;;;;;;19.60;96.20;;;;;;4901878;29;20022;-76
2021/09/21 10:43:03;;;;;;;;;;;19.70;96.00;;;;;;4902561;29;19907;-75
2021/09/21 10:45:29;;;;;;;;;;;19.80;95.90;;;;;;4909497;29;19911;-76
2021/09/21 10:48:05;;;;;;;;;;;19.70;96.30;;;;;;4917967;29;19975;-75
2021/09/21 10:50:36;;;;;;;;;;;19.70;96.20;;;;;;4919604;29;19966;-74
2021/09/21 10:53:02;;;;;;;;;;;19.70;95.90;;;;;;4918606;29;19926;-74
2021/09/21 10:55:32;;;;;;;;;;;19.50;95.80;;;;;;4920719;29;19919;-73
2021/09/21 10:58:03;;;;;;;;;;;19.50;96.00;;;;;;4919882;29;19911;-75
2021/09/21 11:00:30;;;;;;;;;;;19.60;96.30;;;;;;4918613;29;19920;-74
2021/09/21 11:02:56;;;;;;;;;;;19.80;95.90;;;;;;4920986;29;19895;-76
2021/09/21 11:05:26;;;;;;;;;;;19.90;95.90;;;;;;4921819;29;19986;-76
2021/09/21 11:07:56;;;;;;;;;;;20.00;95.90;;;;;;4921706;29;19907;-74
2021/09/21 11:10:26;;;;;;;;;;;20.20;95.60;;;;;;4936031;29;19911;-75
2021/09/21 11:12:52;;;;;;;;;;;20.30;94.90;;;;;;4921205;29;19892;-75
2021/09/21 11:15:21;;;;;;;;;;;20.40;94.10;;;;;;4921211;29;19908;-75
2021/09/21 11:17:46;;;;;;;;;;;20.30;94.20;;;;;;4934264;29;19907;-73
2021/09/21 11:20:12;;;;;;;;;;;20.40;93.80;;;;;;4911604;29;19911;-74
2021/09/21 11:22:37;;;;;;;;;;;20.50;94.20;;;;;;4905132;29;19934;-74
2021/09/21 11:25:07;;;;;;;;;;;20.60;93.40;;;;;;4904132;29;20336;-75
2021/09/21 11:27:36;;;;;;;;;;;20.60;93.50;;;;;;4905201;29;19972;-75
2021/09/21 11:30:08;;;;;;;;;;;20.50;93.60;;;;;;4904426;29;19915;-76
2021/09/21 11:32:35;;;;;;;;;;;20.50;93.60;;;;;;4904016;29;19999;-75
2021/09/21 11:35:02;;;;;;;;;;;20.50;93.70;;;;;;4918004;29;20345;-75
2021/09/21 11:37:28;;;;;;;;;;;20.40;93.90;;;;;;4903267;29;19994;-75
2021/09/21 11:39:54;;;;;;;;;;;20.30;94.40;;;;;;4902580;29;19919;-75
2021/09/21 11:42:20;;;;;;;;;;;20.30;95.10;;;;;;4901162;29;19907;-75
2021/09/21 11:44:46;;;;;;;;;;;20.40;94.00;;;;;;4900517;29;19907;-75
2021/09/21 11:47:11;;;;;;;;;;;20.50;94.10;;;;;;4900911;29;19919;-76
2021/09/21 11:49:37;;;;;;;;;;;20.50;93.70;;;;;;4900902;29;20377;-75
2021/09/21 11:52:03;;;;;;;;;;;20.70;93.60;;;;;;4901053;29;19907;-75
2021/09/21 11:54:30;;;;;;;;;;;20.80;93.90;;;;;;4900578;29;19965;-75
2021/09/21 11:56:56;;;;;;;;;;;20.90;93.70;;;;;;4899026;29;20272;-76
2021/09/21 11:59:22;;;;;;;;;;;21.00;93.50;;;;;;4899945;29;19966;-76
2021/09/21 12:01:49;;;;;;;;;;;21.00;93.50;;;;;;4899887;29;19950;-76
2021/09/21 12:04:14;;;;;;;;;;;21.10;93.90;;;;;;4899491;29;20383;-75
2021/09/21 12:06:40;;;;;;;;;;;21.00;94.60;;;;;;4898283;29;19923;-76
2021/09/21 12:09:06;;;;;;;;;;;21.00;93.70;;;;;;4899697;29;19907;-75
2021/09/21 12:11:36;;;;;;;;;;;21.10;94.20;;;;;;4899592;29;19915;-74
2021/09/21 12:14:02;;;;;;;;;;;21.20;94.20;;;;;;4899383;29;19908;-74
2021/09/21 12:16:28;;;;;;;;;;;21.40;93.60;;;;;;4899343;29;19942;-75
2021/09/21 12:18:55;;;;;;;;;;;21.60;93.50;;;;;;4899464;29;19914;-75
2021/09/21 12:21:22;;;;;;;;;;;21.60;93.00;;;;;;4898190;29;19907;-75
2021/09/21 12:23:47;;;;;;;;;;;21.70;93.60;;;;;;4898153;29;19919;-75
2021/09/21 12:26:18;;;;;;;;;;;21.60;93.30;;;;;;4897877;29;19907;-75
2021/09/21 12:28:45;;;;;;;;;;;21.60;93.30;;;;;;4898034;29;20417;-74
2021/09/21 12:31:17;;;;;;;;;;;21.40;93.20;;;;;;4899191;29;19911;-74
2021/09/21 12:33:43;;;;;;;;;;;21.20;93.40;;;;;;4897871;29;19968;-74
2021/09/21 12:36:42;;;;;;;;;;;21.10;93.40;;;;;;4898944;29;19907;-74
2021/09/21 12:39:10;;;;;;;;;;;21.20;93.50;;;;;;4891572;29;19912;-74
2021/09/21 12:41:41;;;;;;;;;;;21.10;93.80;;;;;;4899277;29;19925;-74
2021/09/21 12:44:07;;;;;;;;;;;21.20;93.60;;;;;;4899679;29;19908;-74
2021/09/21 12:46:33;;;;;;;;;;;21.30;93.50;;;;;;4898864;29;20002;-75
2021/09/21 12:49:01;;;;;;;;;;;21.40;93.60;;;;;;4898971;29;20039;-75
2021/09/21 12:51:37;;;;;;;;;;;21.30;94.30;;;;;;4898871;29;19927;-75
2021/09/21 12:54:05;;;;;;;;;;;21.10;93.90;;;;;;4897137;29;19911;-75
2021/09/21 12:56:31;;;;;;;;;;;21.10;94.20;;;;;;4896447;29;19919;-75
2021/09/21 12:59:09;;;;;;;;;;;21.10;94.00;;;;;;4898408;29;19955;-75
2021/09/21 13:01:35;;;;;;;;;;;21.20;94.00;;;;;;4897211;29;19911;-74
2021/09/21 13:04:00;;;;;;;;;;;21.40;93.50;;;;;;4897611;29;19922;-75
2021/09/21 13:06:26;;;;;;;;;;;21.50;93.60;;;;;;4898132;29;20017;-74
2021/09/21 13:08:51;;;;;;;;;;;21.60;93.40;;;;;;4898197;29;19915;-74
2021/09/21 13:11:17;;;;;;;;;;;21.70;93.00;;;;;;4896837;29;20404;-72
2021/09/21 13:13:42;;;;;;;;;;;21.40;93.00;;;;;;4897053;29;19911;-73
2021/09/21 13:16:08;;;;;;;;;;;21.30;93.00;;;;;;4898124;29;19911;-73
2021/09/21 13:18:34;;;;;;;;;;;21.10;93.60;;;;;;4897767;29;19911;-74
2021/09/21 13:20:59;;;;;;;;;;;21.20;93.60;;;;;;4897094;29;19962;-74
2021/09/21 13:23:25;;;;;;;;;;;21.20;93.80;;;;;;4912392;29;19930;-74
2021/09/21 13:25:50;;;;;;;;;;;21.20;94.00;;;;;;4897963;29;19959;-74
2021/09/21 13:28:16;;;;;;;;;;;21.10;94.00;;;;;;4896375;29;20309;-74
2021/09/21 13:30:49;;;;;;;;;;;21.10;94.60;;;;;;4897379;29;19998;-73
2021/09/21 13:33:14;;;;;;;;;;;21.30;94.20;;;;;;4898017;29;20258;-74
2021/09/21 13:35:40;;;;;;;;;;;21.40;93.90;;;;;;4898432;29;19911;-73
2021/09/21 13:38:05;;;;;;;;;;;21.50;93.90;;;;;;4898034;29;19912;-74
2021/09/21 13:40:31;;;;;;;;;;;21.70;93.60;;;;;;4896754;29;19919;-73
2021/09/21 13:42:56;;;;;;;;;;;21.70;94.30;;;;;;4898352;29;19907;-74
2021/09/21 13:45:24;;;;;;;;;;;21.60;94.10;;;;;;4897959;29;20371;-75
2021/09/21 13:47:50;;;;;;;;;;;21.40;93.90;;;;;;4911712;29;19916;-73
2021/09/21 13:50:16;;;;;;;;;;;21.40;94.10;;;;;;4898153;29;19911;-74
2021/09/21 13:52:42;;;;;;;;;;;21.40;94.50;;;;;;4897996;29;20317;-75
2021/09/21 13:55:08;;;;;;;;;;;21.40;94.30;;;;;;4896357;29;19915;-75
2021/09/21 13:57:34;;;;;;;;;;;21.30;95.00;;;;;;4898425;29;19914;-76
2021/09/21 14:00:00;;;;;;;;;;;21.20;94.90;;;;;;4897512;29;19915;-74
2021/09/21 14:02:25;;;;;;;;;;;21.20;94.00;;;;;;4897725;29;20432;-74
2021/09/21 14:04:51;;;;;;;;;;;21.30;94.50;;;;;;4897453;29;19911;-76
2021/09/21 14:07:17;;;;;;;;;;;21.50;94.60;;;;;;4916127;29;19954;-73
2021/09/21 14:09:43;;;;;;;;;;;21.70;94.30;;;;;;4901799;29;19907;-73
2021/09/21 14:12:09;;;;;;;;;;;21.80;94.30;;;;;;4901461;29;20299;-73
2021/09/21 14:14:35;;;;;;;;;;;21.70;94.30;;;;;;4901402;29;20341;-74
2021/09/21 14:17:01;;;;;;;;;;;21.60;94.90;;;;;;4901644;29;19915;-74
2021/09/21 14:19:26;;;;;;;;;;;21.40;94.20;;;;;;4901475;29;19918;-75
2021/09/21 14:21:52;;;;;;;;;;;21.30;94.50;;;;;;4901164;29;19911;-76
2021/09/21 14:24:17;;;;;;;;;;;21.30;95.00;;;;;;4901446;29;19911;-75
2021/09/21 14:26:46;;;;;;;;;;;21.40;95.00;;;;;;4899869;29;19919;-75